Time;durP1;ratioP1;P1;durP2;ratioP2;P2;SDS_P1;SDS_P2;PMS_P1;PMS_P2;Temp;Humidity;BMP_temperature;BMP_pressure;BME280_temperature;BME280_humidity;BME280_pressure;Samples;Min_cycle;Max_cycle;Signal;HPM_P1;HPM_P2
2023/08/10 00:00:13;;;;;;;0.20;0.20;;;;;;;12.76;71.91;97882.88;5050523;28;20730;-73
2023/08/10 00:02:41;;;;;;;0.10;0.10;;;;;;;12.93;71.53;97883.31;5051184;28;20063;-73
2023/08/10 00:05:10;;;;;;;0.10;0.10;;;;;;;12.95;71.33;97887.44;5052376;28;20518;-72
2023/08/10 00:07:40;;;;;;;0.10;0.10;;;;;;;12.70;72.76;97887.16;5052283;28;20068;-73
2023/08/10 00:10:08;;;;;;;0.20;0.20;;;;;;;12.59;73.12;97882.38;5049766;28;20041;-73
2023/08/10 00:12:37;;;;;;;0.20;0.20;;;;;;;12.67;73.07;97879.50;5052418;28;20068;-73
2023/08/10 00:15:05;;;;;;;0.30;0.30;;;;;;;12.70;72.65;97880.97;5049244;28;20520;-73
2023/08/10 00:17:33;;;;;;;0.10;0.10;;;;;;;12.59;73.26;97893.09;5046182;28;20124;-73
2023/08/10 00:20:05;;;;;;;0.20;0.20;;;;;;;12.80;72.07;97892.13;5051688;28;20107;-73
2023/08/10 00:22:32;;;;;;;0.15;0.15;;;;;;;12.61;72.26;97890.22;5051883;28;20402;-73
2023/08/10 00:25:02;;;;;;;0.20;0.20;;;;;;;12.52;72.27;97891.41;5052548;28;20116;-74
2023/08/10 00:27:30;;;;;;;0.13;0.13;;;;;;;12.50;72.76;97884.41;5037547;28;20144;-73
2023/08/10 00:30:00;;;;;;;0.30;0.30;;;;;;;12.60;72.45;97884.03;5035300;28;20045;-73
2023/08/10 00:32:27;;;;;;;0.20;0.20;;;;;;;12.36;73.29;97884.53;5042235;28;20041;-73
2023/08/10 00:34:55;;;;;;;0.40;0.40;;;;;;;12.18;74.08;97887.75;5039522;28;20402;-74
2023/08/10 00:37:23;;;;;;;0.20;0.20;;;;;;;12.35;73.24;97882.91;5050804;28;20583;-74
2023/08/10 00:39:51;;;;;;;0.20;0.20;;;;;;;12.40;72.95;97878.59;5049808;28;20120;-74
2023/08/10 00:42:21;;;;;;;0.08;0.08;;;;;;;12.30;73.25;97888.00;5047779;28;20570;-74
2023/08/10 00:44:50;;;;;;;0.20;0.20;;;;;;;12.12;74.07;97885.88;5047173;28;20482;-74
2023/08/10 00:47:18;;;;;;;0.10;0.10;;;;;;;12.05;74.30;97885.81;5040538;28;20128;-74
2023/08/10 00:49:46;;;;;;;0.10;0.10;;;;;;;12.07;74.33;97889.13;5044619;28;20125;-74
2023/08/10 00:52:14;;;;;;;0.17;0.17;;;;;;;12.12;73.98;97886.69;5046647;28;20051;-73
2023/08/10 00:54:41;;;;;;;0.17;0.17;;;;;;;12.15;73.80;97890.81;5046350;28;20382;-73
2023/08/10 00:57:09;;;;;;;0.10;0.10;;;;;;;11.88;74.45;97889.00;5047114;28;20571;-73
2023/08/10 00:59:38;;;;;;;0.10;0.10;;;;;;;11.97;74.50;97894.00;5056762;28;20493;-72
2023/08/10 01:02:07;;;;;;;0.73;0.73;;;;;;;12.05;74.09;97895.69;5049634;28;20292;-73
2023/08/10 01:04:35;;;;;;;0.20;0.20;;;;;;;12.08;73.91;97897.97;5050507;28;20071;-73
2023/08/10 01:07:07;;;;;;;0.20;0.20;;;;;;;12.15;73.49;97895.34;5050399;28;20151;-73
2023/08/10 01:09:39;;;;;;;0.13;0.13;;;;;;;11.97;73.92;97888.66;5049711;28;20520;-74
2023/08/10 01:12:14;;;;;;;0.13;0.13;;;;;;;11.92;74.25;97892.94;5059045;28;20048;-74
2023/08/10 01:14:46;;;;;;;0.10;0.10;;;;;;;11.80;74.43;97905.19;5050057;28;20144;-74
2023/08/10 01:17:16;;;;;;;;;;;;;;;11.75;74.64;97903.09;5085017;22;20078;-70
2023/08/10 01:19:44;;;;;;;0.20;0.20;;;;;;;11.72;74.65;97904.31;5076752;28;19925;-70
2023/08/10 01:22:20;;;;;;;0.20;0.20;;;;;;;11.74;74.23;97896.06;5047597;28;20051;-70
2023/08/10 01:24:57;;;;;;;0.30;0.30;;;;;;;11.71;74.22;97901.81;5053055;28;20072;-70
2023/08/10 01:27:25;;;;;;;0.10;0.10;;;;;;;11.71;74.39;97902.66;5044440;28;20135;-70
2023/08/10 01:29:53;;;;;;;0.20;0.20;;;;;;;11.73;74.32;97907.81;5067128;28;20507;-70
2023/08/10 01:32:20;;;;;;;0.20;0.20;;;;;;;11.79;73.73;97908.88;5029504;28;20069;-70
2023/08/10 01:34:50;;;;;;;0.10;0.10;;;;;;;11.77;73.82;97907.22;5021816;28;20075;-70
2023/08/10 01:37:18;;;;;;;0.10;0.10;;;;;;;11.74;73.78;97904.06;5037863;28;20567;-70
2023/08/10 01:39:46;;;;;;;0.20;0.20;;;;;;;11.55;74.24;97918.13;5025755;28;20046;-70
2023/08/10 01:42:15;;;;;;;0.20;0.20;;;;;;;11.45;74.65;97914.94;5054678;28;20488;-70
2023/08/10 01:44:42;;;;;;;0.20;0.20;;;;;;;11.46;74.58;97911.25;5033456;28;20797;-70
2023/08/10 01:47:16;;;;;;;0.22;0.22;;;;;;;11.41;74.86;97917.19;5055353;28;20129;-71
2023/08/10 01:49:45;;;;;;;0.22;0.22;;;;;;;11.37;74.84;97907.91;5027305;28;20080;-70
2023/08/10 01:52:16;;;;;;;0.20;0.20;;;;;;;11.34;74.92;97905.59;5054550;28;20033;-70
2023/08/10 01:54:43;;;;;;;0.20;0.20;;;;;;;11.38;74.85;97910.38;5022859;28;20132;-70
2023/08/10 01:57:11;;;;;;;0.32;0.32;;;;;;;11.39;74.55;97914.72;5050134;28;21465;-70
2023/08/10 01:59:40;;;;;;;0.40;0.40;;;;;;;11.39;74.62;97912.03;5034953;28;20460;-70
2023/08/10 02:02:08;;;;;;;0.20;0.20;;;;;;;11.27;75.40;97904.72;5036758;28;20049;-70
2023/08/10 02:04:36;;;;;;;0.20;0.20;;;;;;;11.32;75.12;97905.78;5037844;28;20036;-70
2023/08/10 02:07:05;;;;;;;0.10;0.10;;;;;;;11.38;74.62;97905.03;5045259;28;20553;-70
2023/08/10 02:09:33;;;;;;;0.35;0.35;;;;;;;11.39;74.54;97906.69;5048904;28;20084;-70
2023/08/10 02:12:02;;;;;;;0.10;0.10;;;;;;;11.41;74.61;97898.50;5045721;28;20472;-70
2023/08/10 02:14:30;;;;;;;0.10;0.10;;;;;;;11.48;74.66;97899.38;5029444;28;20044;-70
2023/08/10 02:16:59;;;;;;;0.20;0.20;;;;;;;11.61;73.83;97906.66;5042493;28;20140;-70
2023/08/10 02:19:27;;;;;;;0.40;0.40;;;;;;;11.27;75.21;97910.88;5047286;28;20053;-70
2023/08/10 02:21:56;;;;;;;0.15;0.15;;;;;;;11.34;75.39;97909.09;5024241;28;20059;-70
2023/08/10 02:24:24;;;;;;;0.20;0.20;;;;;;;11.43;75.18;97904.44;5047977;28;20033;-70
2023/08/10 02:26:51;;;;;;;0.13;0.13;;;;;;;11.50;74.76;97901.84;5029571;28;20541;-69
2023/08/10 02:29:19;;;;;;;0.20;0.20;;;;;;;11.56;74.84;97899.22;5038402;28;20044;-71
2023/08/10 02:31:48;;;;;;;0.15;0.15;;;;;;;11.41;75.43;97898.50;5034411;28;20065;-71
2023/08/10 02:34:19;;;;;;;0.20;0.20;;;;;;;11.59;74.76;97900.69;5041247;28;20033;-70
2023/08/10 02:36:48;;;;;;;0.20;0.20;;;;;;;11.58;74.70;97901.69;5029789;28;20061;-71
2023/08/10 02:39:15;;;;;;;0.20;0.20;;;;;;;11.47;75.05;97912.91;5044315;28;20120;-71
2023/08/10 02:41:43;;;;;;;0.10;0.10;;;;;;;11.42;75.14;97918.03;5037870;28;20060;-71
2023/08/10 02:44:11;;;;;;;0.20;0.20;;;;;;;11.51;74.54;97908.84;5037377;28;20052;-71
2023/08/10 02:46:39;;;;;;;0.20;0.20;;;;;;;11.40;75.33;97902.19;5045309;28;20037;-71
2023/08/10 02:49:08;;;;;;;0.10;0.10;;;;;;;11.42;75.36;97904.66;5052098;28;20497;-71
2023/08/10 02:51:38;;;;;;;0.10;0.10;;;;;;;11.56;74.87;97909.09;5034816;28;20045;-71
2023/08/10 02:54:06;;;;;;;0.10;0.10;;;;;;;11.73;74.19;97908.59;5039519;28;20521;-70
2023/08/10 02:56:34;;;;;;;0.60;0.60;;;;;;;11.84;73.72;97909.13;5032628;28;20107;-71
2023/08/10 02:59:01;;;;;;;0.20;0.20;;;;;;;11.80;73.84;97913.22;5032569;28;20497;-70
2023/08/10 03:01:29;;;;;;;0.10;0.10;;;;;;;11.74;73.95;97914.78;5026963;28;20099;-70
2023/08/10 03:03:59;;;;;;;0.20;0.20;;;;;;;11.56;74.30;97911.75;5042282;28;20128;-70
2023/08/10 03:06:27;;;;;;;0.10;0.10;;;;;;;11.59;74.22;97914.88;5032248;28;20036;-70
2023/08/10 03:08:56;;;;;;;0.22;0.22;;;;;;;11.43;74.38;97920.47;5032929;28;20465;-70
2023/08/10 03:11:23;;;;;;;0.17;0.17;;;;;;;11.51;74.17;97912.34;5030433;28;20124;-70
2023/08/10 03:13:51;;;;;;;0.17;0.17;;;;;;;11.56;74.00;97920.59;5041777;28;20072;-70
2023/08/10 03:16:19;;;;;;;0.40;0.20;;;;;;;11.40;74.52;97924.38;5053683;28;20045;-70
2023/08/10 03:18:47;;;;;;;0.20;0.20;;;;;;;11.46;74.20;97925.44;5029963;28;20171;-70
2023/08/10 03:21:14;;;;;;;0.10;0.10;;;;;;;11.32;74.93;97927.16;5028091;28;20068;-70
2023/08/10 03:23:42;;;;;;;0.20;0.20;;;;;;;11.44;74.70;97927.47;5046394;28;20036;-70
2023/08/10 03:26:12;;;;;;;0.10;0.10;;;;;;;11.44;74.75;97930.16;5035681;28;20420;-70
2023/08/10 03:28:39;;;;;;;0.10;0.10;;;;;;;11.38;74.98;97929.09;5033376;28;20132;-70
2023/08/10 03:31:11;;;;;;;0.20;0.20;;;;;;;11.26;75.69;97935.13;5027850;28;20049;-70
2023/08/10 03:33:40;;;;;;;0.20;0.20;;;;;;;11.29;75.18;97930.25;5049830;28;20136;-70
2023/08/10 03:36:08;;;;;;;0.20;0.20;;;;;;;11.20;75.78;97936.72;5028399;28;20053;-70
2023/08/10 03:38:35;;;;;;;0.20;0.20;;;;;;;11.30;75.09;97939.91;5051796;28;20385;-70
2023/08/10 03:41:03;;;;;;;0.10;0.10;;;;;;;11.19;75.83;97945.75;5025296;28;20064;-70
2023/08/10 03:43:32;;;;;;;0.20;0.20;;;;;;;11.12;76.03;97939.50;5044739;28;20040;-70
2023/08/10 03:46:02;;;;;;;0.20;0.20;;;;;;;10.88;76.59;97940.69;5043421;28;20076;-70
2023/08/10 03:48:31;;;;;;;0.55;0.55;;;;;;;11.04;76.35;97947.63;5031268;28;20445;-70
2023/08/10 03:50:58;;;;;;;0.20;0.20;;;;;;;11.03;76.24;97952.16;5022565;28;20051;-70
2023/08/10 03:53:26;;;;;;;0.20;0.20;;;;;;;10.99;76.43;97948.22;5021209;28;20041;-69
2023/08/10 03:55:54;;;;;;;0.20;0.20;;;;;;;10.99;76.47;97950.06;5024972;28;20048;-69
2023/08/10 03:58:22;;;;;;;0.17;0.17;;;;;;;10.88;76.70;97955.88;5030819;28;20059;-69
2023/08/10 04:00:51;;;;;;;0.17;0.17;;;;;;;10.85;77.19;97950.91;5025880;28;20045;-70
2023/08/10 04:03:20;;;;;;;0.30;0.30;;;;;;;10.92;76.67;97957.16;5047330;28;20482;-70
2023/08/10 04:05:48;;;;;;;0.20;0.20;;;;;;;10.77;77.56;97956.38;5050131;28;20571;-70
2023/08/10 04:08:16;;;;;;;0.20;0.20;;;;;;;10.66;78.09;97958.50;5022214;28;20056;-70
2023/08/10 04:10:44;;;;;;;0.20;0.20;;;;;;;10.72;78.10;97954.25;5041045;28;20060;-70
2023/08/10 04:13:11;;;;;;;0.10;0.10;;;;;;;10.92;77.19;97949.97;5043683;28;20124;-70
2023/08/10 04:15:39;;;;;;;0.13;0.13;;;;;;;11.08;76.42;97942.75;5023382;28;20767;-70
2023/08/10 04:18:08;;;;;;;0.20;0.20;;;;;;;11.18;75.96;97941.44;5041642;28;20055;-69
2023/08/10 04:20:37;;;;;;;0.20;0.20;;;;;;;11.12;76.02;97949.34;5017484;28;20107;-69
2023/08/10 04:23:05;;;;;;;0.10;0.10;;;;;;;11.02;76.46;97947.00;5047623;28;20056;-70
2023/08/10 04:25:32;;;;;;;0.20;0.20;;;;;;;11.14;75.93;97947.31;5047231;28;20037;-69
2023/08/10 04:28:01;;;;;;;0.20;0.17;;;;;;;11.11;75.80;97942.38;5045292;28;20102;-70
2023/08/10 04:30:29;;;;;;;0.13;0.13;;;;;;;11.02;76.67;97945.16;5047861;28;20045;-70
2023/08/10 04:32:57;;;;;;;0.22;0.22;;;;;;;11.07;76.48;97943.75;5048703;28;20041;-70
2023/08/10 04:35:26;;;;;;;0.20;0.20;;;;;;;11.13;76.54;97938.47;5047778;28;20112;-71
2023/08/10 04:37:54;;;;;;;0.22;0.22;;;;;;;11.25;76.44;97941.47;5045486;28;20154;-71
2023/08/10 04:40:23;;;;;;;0.10;0.10;;;;;;;11.31;76.10;97951.44;5041521;28;20052;-71
2023/08/10 04:42:50;;;;;;;0.20;0.20;;;;;;;11.20;75.94;97950.09;5048162;28;20041;-71
2023/08/10 04:45:19;;;;;;;0.20;0.20;;;;;;;11.03;76.44;97949.47;5043990;28;20055;-71
2023/08/10 04:47:47;;;;;;;0.22;0.22;;;;;;;11.21;76.09;97954.38;5050653;28;20150;-71
2023/08/10 04:50:14;;;;;;;0.10;0.10;;;;;;;11.39;75.61;97954.81;5046316;28;20041;-70
2023/08/10 04:52:44;;;;;;;0.10;0.10;;;;;;;11.40;75.13;97953.78;5047980;28;20202;-71
2023/08/10 04:55:12;;;;;;;0.15;0.15;;;;;;;11.51;74.63;97949.78;5045703;28;20082;-71
2023/08/10 04:57:39;;;;;;;0.08;0.08;;;;;;;11.37;75.31;97956.00;5045976;28;20041;-71
2023/08/10 05:00:12;;;;;;;0.20;0.20;;;;;;;11.62;74.60;97948.44;5046231;28;20051;-71
2023/08/10 05:02:41;;;;;;;0.20;0.20;;;;;;;11.56;74.63;97951.84;5046414;28;20064;-71
2023/08/10 05:05:09;;;;;;;0.10;0.10;;;;;;;11.55;74.55;97951.03;5031624;28;20398;-72
2023/08/10 05:07:37;;;;;;;0.20;0.20;;;;;;;11.55;74.29;97955.53;5051364;28;20079;-71
2023/08/10 05:10:08;;;;;;;0.25;0.25;;;;;;;11.56;74.79;97965.22;5044053;28;20041;-70
2023/08/10 05:12:36;;;;;;;0.20;0.20;;;;;;;11.51;75.01;97962.31;5052355;28;20041;-71
2023/08/10 05:15:06;;;;;;;0.20;0.20;;;;;;;11.54;74.72;97959.22;5046172;28;20110;-71
2023/08/10 05:17:34;;;;;;;0.10;0.10;;;;;;;11.53;74.66;97966.41;5048945;28;20045;-72
2023/08/10 05:20:07;;;;;;;0.13;0.13;;;;;;;11.60;74.61;97956.63;5041732;28;20172;-70
2023/08/10 05:22:35;;;;;;;0.10;0.10;;;;;;;11.71;74.64;97958.78;5043214;28;20073;-71
2023/08/10 05:25:03;;;;;;;0.17;0.17;;;;;;;11.66;74.32;97963.88;5036871;28;20076;-71
2023/08/10 05:27:32;;;;;;;0.17;0.17;;;;;;;11.81;74.20;97969.19;5042480;28;20046;-71
2023/08/10 05:29:59;;;;;;;0.20;0.20;;;;;;;11.79;74.13;97973.06;5041526;28;20386;-70
2023/08/10 05:32:27;;;;;;;0.20;0.20;;;;;;;11.63;74.67;97971.44;5048293;28;20547;-70
2023/08/10 05:34:55;;;;;;;0.20;0.20;;;;;;;11.84;74.35;97973.31;5042098;28;20514;-71
2023/08/10 05:37:22;;;;;;;0.20;0.20;;;;;;;11.87;73.88;97978.28;5041510;28;20076;-71
2023/08/10 05:39:51;;;;;;;0.20;0.20;;;;;;;11.97;73.57;97973.41;5046429;28;20116;-70
2023/08/10 05:42:18;;;;;;;0.17;0.17;;;;;;;11.99;72.94;97980.25;5043896;28;20045;-70
2023/08/10 05:44:47;;;;;;;0.20;0.20;;;;;;;12.04;72.95;97977.00;5042245;28;20416;-71
2023/08/10 05:47:15;;;;;;;0.10;0.10;;;;;;;12.10;72.73;97977.03;5051434;28;20040;-71
2023/08/10 05:49:42;;;;;;;0.30;0.30;;;;;;;12.12;72.45;97983.03;5051692;28;20083;-72
2023/08/10 05:52:10;;;;;;;0.17;0.17;;;;;;;12.15;72.13;97972.97;5052340;28;20047;-71
2023/08/10 05:54:38;;;;;;;0.13;0.13;;;;;;;12.12;72.32;97974.16;5050205;28;20045;-71
2023/08/10 05:57:06;;;;;;;0.17;0.17;;;;;;;12.19;71.87;97972.34;5048332;28;20116;-69
2023/08/10 05:59:33;;;;;;;0.10;0.10;;;;;;;12.30;71.71;97982.53;5032922;28;20362;-69
2023/08/10 06:02:02;;;;;;;0.20;0.20;;;;;;;12.32;71.67;97983.16;5046839;28;20055;-70
2023/08/10 06:04:30;;;;;;;0.20;0.20;;;;;;;12.43;71.54;97987.97;5054262;28;20099;-72
2023/08/10 06:06:58;;;;;;;0.10;0.10;;;;;;;12.55;71.34;97988.25;5064800;28;20059;-71
2023/08/10 06:09:26;;;;;;;0.20;0.20;;;;;;;12.62;70.49;97991.78;5071021;28;20047;-70
2023/08/10 06:11:53;;;;;;;0.00;0.00;;;;;;;12.71;70.44;97995.94;5061920;28;20094;-72
2023/08/10 06:14:21;;;;;;;0.10;0.10;;;;;;;12.73;69.72;97988.53;5048988;28;20043;-72
2023/08/10 06:16:49;;;;;;;0.30;0.30;;;;;;;12.81;69.32;97984.88;5060325;28;20051;-71
2023/08/10 06:19:18;;;;;;;0.20;0.20;;;;;;;12.88;69.24;97986.53;5024114;28;20052;-69
2023/08/10 06:21:46;;;;;;;0.20;0.20;;;;;;;12.93;69.25;97983.28;5059043;28;20045;-71
2023/08/10 06:24:16;;;;;;;0.20;0.20;;;;;;;13.01;69.05;97987.63;5049546;28;20038;-72
2023/08/10 06:26:43;;;;;;;0.20;0.20;;;;;;;13.04;68.80;97989.91;5052835;28;20045;-71
2023/08/10 06:29:11;;;;;;;0.30;0.30;;;;;;;13.16;68.98;97986.50;5057986;28;20124;-72
2023/08/10 06:31:39;;;;;;;0.43;0.43;;;;;;;13.20;68.91;97992.25;5048080;28;20120;-71
2023/08/10 06:34:07;;;;;;;0.10;0.10;;;;;;;13.37;68.29;97982.00;5053911;28;20386;-71
2023/08/10 06:36:36;;;;;;;0.15;0.15;;;;;;;13.41;68.49;97989.44;5047875;28;20053;-69
2023/08/10 06:39:06;;;;;;;0.20;0.20;;;;;;;13.55;nan;97991.13;5043249;28;20512;-72
2023/08/10 06:41:34;;;;;;;0.10;0.10;;;;;;;13.68;67.42;97982.28;5050207;28;20048;-71
2023/08/10 06:44:02;;;;;;;0.20;0.20;;;;;;;13.76;67.45;97986.59;5061318;28;20490;-69
2023/08/10 06:46:29;;;;;;;0.25;0.25;;;;;;;13.81;67.41;97979.59;5046727;28;20067;-69
2023/08/10 06:48:57;;;;;;;0.10;0.10;;;;;;;13.96;67.12;97982.06;5055774;28;20428;-69
2023/08/10 06:51:25;;;;;;;0.20;0.20;;;;;;;14.13;66.75;97980.63;5053677;28;20176;-69
2023/08/10 06:53:54;;;;;;;0.10;0.10;;;;;;;14.34;66.90;97985.75;5058313;28;20051;-70
2023/08/10 06:56:21;;;;;;;0.10;0.10;;;;;;;14.56;65.58;97986.38;5057408;28;20037;-70
2023/08/10 06:58:49;;;;;;;0.10;0.10;;;;;;;14.69;64.71;97986.34;5047253;28;20048;-70
2023/08/10 07:01:20;;;;;;;0.10;0.10;;;;;;;14.74;65.21;97991.09;5047623;28;20051;-70
2023/08/10 07:03:47;;;;;;;0.10;0.10;;;;;;;14.77;65.12;97998.72;5045283;28;20037;-70
2023/08/10 07:06:16;;;;;;;0.20;0.20;;;;;;;14.89;64.71;97997.03;5054440;28;20376;-70
2023/08/10 07:08:43;;;;;;;0.20;0.20;;;;;;;15.00;64.82;97995.56;5053994;28;20048;-70
2023/08/10 07:11:12;;;;;;;0.10;0.10;;;;;;;15.11;64.55;97991.38;5064087;28;20049;-70
2023/08/10 07:13:41;;;;;;;0.20;0.20;;;;;;;15.33;62.24;97987.34;5058474;28;20104;-70
2023/08/10 07:18:48;;;;;;;0.10;0.10;;;;;;;15.64;61.72;97998.16;5014243;28;20379;-71
2023/08/10 07:21:17;;;;;;;0.35;0.35;;;;;;;15.77;62.12;97992.69;5015305;28;20432;-72
2023/08/10 07:23:46;;;;;;;0.10;0.10;;;;;;;15.88;61.55;97990.34;5010986;28;20042;-71
2023/08/10 07:26:15;;;;;;;0.10;0.10;;;;;;;16.01;61.15;97987.53;5009154;28;20038;-71
2023/08/10 07:28:43;;;;;;;0.15;0.15;;;;;;;16.25;59.94;97993.97;5024095;28;20047;-72
2023/08/10 07:31:11;;;;;;;0.00;0.00;;;;;;;16.46;59.25;97996.25;5014467;28;20046;-72
2023/08/10 07:33:39;;;;;;;0.00;0.00;;;;;;;16.66;58.59;97996.91;5030617;28;20116;-72
2023/08/10 07:36:07;;;;;;;0.10;0.10;;;;;;;16.89;57.68;97990.88;5023581;28;20495;-72
2023/08/10 07:38:35;;;;;;;0.10;0.10;;;;;;;17.10;57.74;97989.56;5028295;28;20562;-72
2023/08/10 07:41:02;;;;;;;0.10;0.10;;;;;;;17.25;56.76;97995.38;5027281;28;20072;-72
2023/08/10 07:43:31;;;;;;;0.20;0.20;;;;;;;17.29;56.86;97990.38;5028320;28;20041;-72
2023/08/10 07:45:59;;;;;;;0.10;0.10;;;;;;;17.41;55.28;97992.06;5030032;28;20124;-72
2023/08/10 07:48:27;;;;;;;0.10;0.10;;;;;;;17.56;56.19;97997.03;5031377;28;20048;-72
2023/08/10 07:50:56;;;;;;;0.10;0.10;;;;;;;17.70;54.20;97992.31;5031287;28;20048;-72
2023/08/10 07:53:23;;;;;;;0.20;0.10;;;;;;;17.84;53.32;97989.22;5032095;28;20414;-72
2023/08/10 07:55:51;;;;;;;0.13;0.13;;;;;;;18.06;52.36;97988.66;5031155;28;20475;-72
2023/08/10 07:58:19;;;;;;;0.10;0.10;;;;;;;18.25;51.36;97993.75;5028835;28;20054;-72
2023/08/10 08:00:48;;;;;;;0.13;0.13;;;;;;;18.27;50.52;97993.50;5031750;28;20429;-72
2023/08/10 08:03:15;;;;;;;0.30;0.30;;;;;;;18.42;50.74;97995.72;5029822;28;20421;-71
2023/08/10 08:05:43;;;;;;;0.10;0.10;;;;;;;18.54;49.95;97994.69;5032822;28;20041;-72
2023/08/10 08:08:11;;;;;;;0.10;0.10;;;;;;;18.64;49.95;97989.53;5031948;28;20080;-72
2023/08/10 08:10:39;;;;;;;0.10;0.10;;;;;;;18.70;48.30;97998.56;5032443;28;20383;-72
2023/08/10 08:13:08;;;;;;;0.30;0.30;;;;;;;18.75;48.32;97990.59;5042056;28;20405;-72
2023/08/10 08:15:38;;;;;;;0.20;0.20;;;;;;;18.85;48.97;97989.97;5037088;28;20099;-72
2023/08/10 08:18:41;;;;;;;0.10;0.10;;;;;;;19.04;46.80;97989.59;5025744;28;20128;-72
2023/08/10 08:21:10;;;;;;;0.10;0.10;;;;;;;18.97;46.71;97997.03;5035313;28;20551;-72
2023/08/10 08:23:37;;;;;;;0.10;0.10;;;;;;;19.25;47.48;97990.81;5037865;28;20068;-72
2023/08/10 08:26:05;;;;;;;0.30;0.20;;;;;;;19.39;46.34;97986.78;5035295;28;20059;-72
2023/08/10 08:28:33;;;;;;;0.10;0.10;;;;;;;19.38;45.51;97979.72;5041975;28;20045;-72
2023/08/10 08:31:01;;;;;;;0.15;0.15;;;;;;;19.36;45.59;97986.44;5037255;28;20045;-72
2023/08/10 08:33:29;;;;;;;0.10;0.10;;;;;;;19.40;46.45;97983.03;5041148;28;20493;-73
2023/08/10 08:35:58;;;;;;;0.15;0.15;;;;;;;19.52;44.99;97984.88;5035788;28;20034;-72
2023/08/10 08:38:26;;;;;;;0.10;0.10;;;;;;;19.47;45.75;97979.34;5047952;28;20041;-72
2023/08/10 08:40:54;;;;;;;0.10;0.10;;;;;;;19.49;46.42;97980.78;5034851;28;20116;-72
2023/08/10 08:43:22;;;;;;;0.10;0.10;;;;;;;19.33;46.85;97986.91;5035713;28;20037;-72
2023/08/10 08:45:50;;;;;;;0.10;0.10;;;;;;;19.34;47.30;97986.66;5043709;28;20034;-72
2023/08/10 08:48:18;;;;;;;0.10;0.10;;;;;;;19.41;46.69;97973.81;5022682;28;20037;-72
2023/08/10 08:50:47;;;;;;;0.10;0.10;;;;;;;19.69;45.75;97969.50;5039318;28;20041;-72
2023/08/10 08:53:16;;;;;;;0.20;0.20;;;;;;;20.09;44.54;97975.59;5026775;28;20481;-72
2023/08/10 08:55:46;;;;;;;0.10;0.10;;;;;;;20.41;44.59;97975.88;5039952;28;20041;-72
2023/08/10 08:58:14;;;;;;;0.10;0.10;;;;;;;20.27;43.16;97976.41;5027369;28;20048;-72
2023/08/10 09:00:47;;;;;;;0.10;0.10;;;;;;;20.46;43.97;97980.53;5038093;28;20049;-72
2023/08/10 09:03:15;;;;;;;0.10;0.10;;;;;;;20.52;42.24;97984.97;5046272;28;20041;-72
2023/08/10 09:05:45;;;;;;;0.10;0.10;;;;;;;20.31;42.97;97977.56;5035240;28;20037;-72
2023/08/10 09:08:14;;;;;;;0.10;0.10;;;;;;;20.43;42.82;97976.44;5035330;28;20087;-72
2023/08/10 09:10:45;;;;;;;0.20;0.20;;;;;;;20.54;42.96;97977.44;5033626;28;20089;-73
2023/08/10 09:13:14;;;;;;;0.10;0.10;;;;;;;20.69;42.64;97972.19;5041036;28;20830;-72
2023/08/10 09:15:41;;;;;;;0.10;0.10;;;;;;;20.92;41.76;97971.16;5035444;28;20063;-72
2023/08/10 09:18:10;;;;;;;0.20;0.10;;;;;;;21.02;42.25;97967.75;5040089;28;20044;-73
2023/08/10 09:20:38;;;;;;;0.10;0.10;;;;;;;20.91;41.51;97966.81;5037151;28;20038;-72
2023/08/10 09:23:05;;;;;;;0.10;0.10;;;;;;;20.80;42.25;97968.56;5037805;28;20091;-72
2023/08/10 09:25:38;;;;;;;0.20;0.20;;;;;;;21.05;41.53;97959.13;5034009;28;20049;-72
2023/08/10 09:28:12;;;;;;;0.10;0.10;;;;;;;20.68;42.02;97967.84;5038273;28;20132;-72
2023/08/10 09:30:41;;;;;;;0.00;0.00;;;;;;;21.02;42.55;97965.88;5023425;28;20041;-72
2023/08/10 09:33:09;;;;;;;0.10;0.10;;;;;;;21.36;41.76;97958.44;5034312;28;20054;-72
2023/08/10 09:35:38;;;;;;;0.10;0.10;;;;;;;21.67;40.32;97962.28;5026856;28;20127;-73
2023/08/10 09:38:06;;;;;;;0.10;0.10;;;;;;;21.72;39.90;97966.94;5026379;28;20069;-72
2023/08/10 09:40:34;;;;;;;0.10;0.10;;;;;;;21.90;39.27;97967.41;5031470;28;20049;-72
2023/08/10 09:43:10;;;;;;;0.10;0.10;;;;;;;21.59;39.58;97968.19;5031932;28;20494;-72
2023/08/10 09:45:41;;;;;;;0.10;0.10;;;;;;;21.83;39.85;97969.50;5034553;28;20048;-72
2023/08/10 09:48:12;;;;;;;0.10;0.10;;;;;;;22.20;39.69;97972.31;5033280;28;20183;-72
2023/08/10 09:50:39;;;;;;;0.10;0.10;;;;;;;22.15;38.79;97977.69;5041731;28;20080;-72
2023/08/10 09:53:07;;;;;;;0.10;0.10;;;;;;;22.08;39.49;97965.41;5035328;28;20124;-72
2023/08/10 09:55:35;;;;;;;0.10;0.10;;;;;;;22.10;38.49;97974.97;5036784;28;20041;-72
2023/08/10 09:58:03;;;;;;;0.10;0.10;;;;;;;22.29;38.12;97959.88;5039671;28;20048;-72
2023/08/10 10:00:32;;;;;;;0.20;0.10;;;;;;;22.77;37.30;97959.94;5039795;28;20045;-72
2023/08/10 10:03:00;;;;;;;0.10;0.10;;;;;;;22.80;37.38;97967.56;5047568;28;20533;-72
2023/08/10 10:05:27;;;;;;;0.10;0.10;;;;;;;22.78;36.43;97962.38;5033157;28;20123;-72
2023/08/10 10:08:05;;;;;;;0.10;0.10;;;;;;;22.48;37.16;97964.91;5039822;28;20087;-73
2023/08/10 10:10:36;;;;;;;0.08;0.08;;;;;;;22.39;38.00;97964.56;5036744;28;20052;-72
2023/08/10 10:13:06;;;;;;;0.10;0.10;;;;;;;22.11;37.51;97968.44;5040782;28;20077;-73
2023/08/10 10:15:36;;;;;;;0.10;0.10;;;;;;;21.42;37.95;97962.84;5035296;28;20053;-72
2023/08/10 10:18:05;;;;;;;0.10;0.10;;;;;;;21.37;38.54;97964.69;5042755;28;20156;-73
2023/08/10 10:20:33;;;;;;;0.08;0.08;;;;;;;20.95;39.19;97965.25;5036344;28;20478;-73
2023/08/10 10:23:02;;;;;;;0.10;0.10;;;;;;;20.78;40.02;97959.03;5035737;28;20038;-73
2023/08/10 10:25:30;;;;;;;0.10;0.10;;;;;;;20.79;39.50;97961.50;5033870;28;20080;-74
2023/08/10 10:27:57;;;;;;;0.10;0.10;;;;;;;21.14;39.93;97965.75;5032992;28;20064;-73
2023/08/10 10:30:28;;;;;;;0.10;0.10;;;;;;;21.32;38.70;97968.16;5023283;28;20518;-73
2023/08/10 10:32:59;;;;;;;0.10;0.10;;;;;;;21.75;37.60;97961.00;5039600;28;20076;-73
2023/08/10 10:35:32;;;;;;;0.10;0.10;;;;;;;21.93;37.61;97964.16;5035214;28;20033;-73
2023/08/10 10:38:01;;;;;;;0.10;0.10;;;;;;;22.39;35.80;97961.84;5020739;28;20096;-72
2023/08/10 10:40:30;;;;;;;0.13;0.13;;;;;;;22.17;36.92;97956.50;5040358;28;20445;-72
2023/08/10 10:43:05;;;;;;;0.00;0.00;;;;;;;21.98;37.69;97960.72;5030840;28;20046;-72
2023/08/10 10:45:37;;;;;;;0.10;0.10;;;;;;;21.99;37.63;97946.03;5044087;28;20073;-73
2023/08/10 10:48:06;;;;;;;0.10;0.10;;;;;;;21.89;37.82;97954.91;5039246;28;20085;-73
2023/08/10 10:50:37;;;;;;;0.00;0.00;;;;;;;21.67;38.02;97946.00;5042375;28;20065;-72
2023/08/10 10:53:06;;;;;;;0.10;0.10;;;;;;;21.61;38.24;97958.69;5019596;28;20121;-72
2023/08/10 10:55:42;;;;;;;0.10;0.10;;;;;;;21.12;38.21;97955.13;5020991;28;20054;-72
2023/08/10 10:58:11;;;;;;;0.10;0.10;;;;;;;21.07;38.38;97956.97;5033508;28;20029;-72
2023/08/10 11:00:41;;;;;;;0.10;0.10;;;;;;;21.05;38.41;97956.41;5040539;28;20045;-72
2023/08/10 11:03:14;;;;;;;0.10;0.10;;;;;;;21.33;38.44;97941.81;5043853;28;20111;-72
2023/08/10 11:05:42;;;;;;;0.08;0.08;;;;;;;21.72;38.46;97951.44;5039026;28;20063;-73
2023/08/10 11:08:09;;;;;;;0.10;0.10;;;;;;;22.02;37.96;97948.22;5031488;28;20053;-72
2023/08/10 11:10:40;;;;;;;0.10;0.10;;;;;;;22.67;36.28;97947.88;5017907;28;20037;-72
2023/08/10 11:13:09;;;;;;;0.17;0.17;;;;;;;22.97;34.54;97951.84;5033881;28;20060;-72
2023/08/10 11:15:37;;;;;;;0.08;0.08;;;;;;;22.83;34.88;97951.53;5037763;28;20046;-72
2023/08/10 11:18:10;;;;;;;0.10;0.10;;;;;;;22.73;35.15;97954.19;5038300;28;20052;-73
2023/08/10 11:20:44;;;;;;;0.10;0.10;;;;;;;22.61;34.95;97950.84;5031150;28;20093;-72
2023/08/10 11:23:12;;;;;;;0.10;0.10;;;;;;;22.20;35.32;97939.69;5033146;28;20053;-72
2023/08/10 11:25:47;;;;;;;0.10;0.10;;;;;;;22.09;36.44;97943.41;5037159;28;20045;-72
2023/08/10 11:28:16;;;;;;;0.10;0.10;;;;;;;22.63;34.98;97937.78;5039703;28;20449;-72
2023/08/10 11:30:45;;;;;;;0.00;0.00;;;;;;;22.73;34.92;97929.69;5039484;28;20349;-72
2023/08/10 11:33:13;;;;;;;0.10;0.10;;;;;;;22.82;34.56;97932.75;5026537;28;20558;-72
2023/08/10 11:35:45;;;;;;;0.10;0.10;;;;;;;23.14;34.31;97930.72;5039618;28;20064;-72
2023/08/10 11:38:12;;;;;;;0.10;0.10;;;;;;;23.40;33.73;97935.13;5038242;28;20044;-72
2023/08/10 11:40:40;;;;;;;0.10;0.10;;;;;;;23.12;33.92;97929.31;5040193;28;20077;-73
2023/08/10 11:43:11;;;;;;;0.10;0.10;;;;;;;23.13;34.94;97929.06;5034372;28;20135;-72